UUBP

Details ICAO UUBP (BZK)
Name BRYANSK
Region Russia
Timezone Europe/Moscow (UTC+3.0)
Plans Departing 36
Arriving 22
Stats Elevation 663 ft / 202 m (AMSL)
Location 53.214193° 34.176447°
Runways 1
Magnetic Variation 9.276° E
Sunrise 2017-12-11 05:49:05 UTC / 2017-12-11 08:49:05 Local
Sunset 2017-12-11 13:26:50 UTC / 2017-12-11 16:26:50 Local
Advertisement - Login to hide

Runways

ID Width Length Bearing (true) Bearing (mag) Surface Threshold Offset Overrun Length
17 138 ft / 42 m 7,863 ft / 2,397 m 171.46° 162.18° Concrete 0 ft / 0 m 160 ft / 49 m
35 138 ft / 42 m 7,863 ft / 2,397 m 351.46° 342.18° Concrete 0 ft / 0 m 170 ft / 52 m

Approach Navaids

Runway Type Ident Frequency Range Bearing (true) Bearing (mag) Slope Elevation
35 Localiser INU 109.90 MHz 18 nm / 33 km 350.98° 341.71° - 663 ft / 202 m (AMSL)
35 Glidescope INU 109.90 MHz 10 nm / 19 km 351.46° 342.18° 2.70° 663 ft / 202 m (AMSL)

Map

Weather


0- 5 10 15 20 25 30 35+ Temperature / ° C

Clouds and Precipitation
Forecast for 2017-12-11 06:00 UTC. Updated an hour ago

Ground ~20,000 ft ~40,000 ft Winds

METAR

UUBP 110600Z 25004MPS 1800 R16/1800N BR OVC003 01/00 Q1000 R16/290055 NOSIG RMK QBB090 QFE732/0976

TAF

Not found

Frequencies

Tower 129.80 MHz TWR
Approach 119.20 MHz KRUG
Warning: Do not use this data for real-world aviation or navigation. No guarantee of current accuracy is given.